Time;durP1;ratioP1;P1;durP2;ratioP2;P2;SDS_P1;SDS_P2;PMS_P1;PMS_P2;Temp;Humidity;BMP_temperature;BMP_pressure;BME280_temperature;BME280_humidity;BME280_pressure;Samples;Min_cycle;Max_cycle;Signal;HPM_P1;HPM_P2
2024/03/06 00:02:16;;;;;;;20.25;14.30;;;;;;;30.01;82.14;100871.28;5058976;28;66014;-31
2024/03/06 00:04:47;;;;;;;24.92;15.32;;;;;;;29.94;82.99;100859.66;5058240;28;70018;-30
2024/03/06 00:07:18;;;;;;;24.50;15.85;;;;;;;30.02;82.45;100867.50;5058487;28;66490;-31
2024/03/06 00:09:48;;;;;;;18.65;16.15;;;;;;;30.15;82.80;100878.28;5049427;28;69266;-32
2024/03/06 00:12:19;;;;;;;18.98;16.48;;;;;;;30.20;86.13;100886.59;5057167;28;65231;-29
2024/03/06 00:14:50;;;;;;;21.08;16.75;;;;;;;30.21;84.09;100882.81;5058700;28;71335;-32
2024/03/06 00:17:20;;;;;;;25.75;17.45;;;;;;;30.22;85.06;100884.50;5056357;28;65540;-31
2024/03/06 00:19:51;;;;;;;33.17;19.45;;;;;;;30.24;84.59;100887.84;5052683;28;70815;-30
2024/03/06 00:22:21;;;;;;;22.75;17.65;;;;;;;30.27;83.43;100887.41;5058388;28;66181;-31
2024/03/06 00:24:52;;;;;;;24.65;18.00;;;;;;;30.30;84.42;100898.84;5051668;28;70933;-31
2024/03/06 00:27:23;;;;;;;34.47;20.98;;;;;;;30.22;85.92;100895.31;5043280;28;66435;-30
2024/03/06 00:29:53;;;;;;;42.50;22.27;;;;;;;30.07;86.84;100900.16;5058413;28;69347;-31
2024/03/06 00:32:24;;;;;;;29.23;20.13;;;;;;;30.19;85.04;100901.13;5057422;28;66478;-31
2024/03/06 00:34:55;;;;;;;32.08;18.92;;;;;;;30.24;84.79;100904.06;5056274;28;69958;-30
2024/03/06 00:37:26;;;;;;;23.17;18.88;;;;;;;30.30;84.89;100909.66;5058728;28;66408;-32
2024/03/06 00:39:56;;;;;;;23.63;19.08;;;;;;;30.24;84.24;100904.06;5058746;28;69763;-32
2024/03/06 00:42:27;;;;;;;25.38;18.27;;;;;;;30.32;84.10;100915.69;5055658;28;65808;-31
2024/03/06 00:44:57;;;;;;;18.15;16.35;;;;;;;30.38;83.36;100915.66;5058262;28;70435;-30
2024/03/06 00:47:28;;;;;;;23.63;17.27;;;;;;;30.43;83.13;100920.44;5051216;28;67243;-31
2024/03/06 00:49:59;;;;;;;22.50;16.10;;;;;;;30.39;83.68;100917.31;5056815;28;69708;-31
2024/03/06 00:52:29;;;;;;;22.08;16.13;;;;;;;30.45;83.13;100927.28;5057559;28;66366;-31
2024/03/06 00:55:00;;;;;;;17.48;15.48;;;;;;;30.48;83.19;100928.75;5054803;28;71167;-31
2024/03/06 00:57:31;;;;;;;21.00;15.38;;;;;;;30.50;83.26;100929.31;5055042;28;66267;-31
2024/03/06 01:00:10;;;;;;;18.05;16.10;;;;;;;30.53;83.18;100928.06;5056052;28;69434;-31
2024/03/06 01:02:41;;;;;;;20.08;14.50;;;;;;;30.54;83.03;100935.16;5047117;28;66847;-30
2024/03/06 01:05:11;;;;;;;17.55;13.80;;;;;;;30.54;83.37;100936.00;5058594;28;70628;-31
2024/03/06 01:07:42;;;;;;;16.58;14.80;;;;;;;30.55;83.22;100942.22;5055490;28;67399;-31
2024/03/06 01:10:13;;;;;;;15.23;13.63;;;;;;;30.55;83.71;100943.06;5046569;28;70687;-31
2024/03/06 01:12:46;;;;;;;23.27;14.85;;;;;;;30.58;83.36;100937.19;5059245;28;65483;-32
2024/03/06 01:15:17;;;;;;;21.30;15.65;;;;;;;30.61;83.59;100939.47;5058255;28;70246;-31
2024/03/06 01:17:48;;;;;;;17.95;15.30;;;;;;;30.63;83.50;100945.50;5057396;28;66307;-32
2024/03/06 01:20:18;;;;;;;19.80;15.23;;;;;;;30.64;83.33;100952.56;5057159;28;69879;-31
2024/03/06 01:22:49;;;;;;;20.80;16.08;;;;;;;30.60;83.88;100951.34;5058426;28;67051;-30
2024/03/06 01:25:21;;;;;;;17.23;15.53;;;;;;;30.65;83.40;100956.97;5058617;28;70262;-31
2024/03/06 01:27:51;;;;;;;18.75;16.50;;;;;;;30.64;83.83;100955.28;5053968;28;65252;-31
2024/03/06 01:30:22;;;;;;;16.50;14.80;;;;;;;30.71;83.77;100966.09;5054328;28;70069;-32
2024/03/06 01:32:53;;;;;;;24.05;15.77;;;;;;;30.75;83.44;100969.19;5059950;28;66766;-30
2024/03/06 01:35:24;;;;;;;16.98;14.95;;;;;;;30.76;83.35;100968.13;5057000;28;70509;-30
2024/03/06 01:37:55;;;;;;;17.67;14.67;;;;;;;30.75;83.16;100974.59;5056403;28;65807;-30
2024/03/06 01:40:26;;;;;;;17.90;14.65;;;;;;;30.75;82.49;100971.88;5054698;28;69203;-31
2024/03/06 01:42:56;;;;;;;18.98;14.77;;;;;;;30.77;82.93;100972.50;5051580;28;65202;-31
2024/03/06 01:45:27;;;;;;;16.55;14.95;;;;;;;30.80;82.73;100989.19;5053136;28;69526;-31
2024/03/06 01:47:58;;;;;;;19.17;14.93;;;;;;;30.81;82.61;100993.53;5052047;28;66179;-31
2024/03/06 01:50:29;;;;;;;18.90;14.82;;;;;;;30.83;82.24;100987.91;5050761;28;69190;-30
2024/03/06 01:53:00;;;;;;;16.02;14.60;;;;;;;30.84;82.14;100986.84;5049890;28;66638;-31
2024/03/06 01:55:30;;;;;;;19.83;15.38;;;;;;;30.86;81.74;100993.72;5050054;28;69779;-33
2024/03/06 01:58:01;;;;;;;19.55;15.13;;;;;;;30.87;81.92;100994.53;5053072;28;66170;-32
2024/03/06 02:00:33;;;;;;;25.75;15.57;;;;;;;30.85;82.19;100992.06;5049347;28;68829;-32
2024/03/06 02:03:04;;;;;;;26.17;15.73;;;;;;;30.90;82.22;100999.56;5051535;28;66457;-31
2024/03/06 02:05:35;;;;;;;24.35;15.48;;;;;;;30.90;82.15;101000.38;5049934;28;71088;-32
2024/03/06 02:08:07;;;;;;;17.88;14.85;;;;;;;30.92;81.75;100997.44;5054102;28;65889;-34
2024/03/06 02:10:37;;;;;;;;;;;;;;;30.83;82.82;101004.16;5056086;28;69966;-31
2024/03/06 02:13:09;;;;;;;16.83;15.10;;;;;;;30.94;81.36;101006.19;5055995;28;65492;-31
2024/03/06 02:15:40;;;;;;;16.05;14.60;;;;;;;30.97;81.36;101005.75;5053865;28;71017;-30
2024/03/06 02:18:11;;;;;;;17.30;15.32;;;;;;;30.97;81.11;101003.03;5055227;28;66450;-31
2024/03/06 02:20:41;;;;;;;16.48;14.75;;;;;;;30.98;81.61;101002.00;5053897;28;70207;-32
2024/03/06 02:23:13;;;;;;;15.77;14.20;;;;;;;31.00;80.89;101008.00;5054325;28;66889;-32
2024/03/06 02:25:47;;;;;;;16.73;14.97;;;;;;;31.01;81.36;100998.00;5054584;28;70435;-31
2024/03/06 02:28:18;;;;;;;16.58;14.95;;;;;;;31.04;81.00;101001.13;5054405;28;66319;-31
2024/03/06 02:30:52;;;;;;;16.25;14.57;;;;;;;31.04;81.24;101001.13;5054032;28;70375;-31
2024/03/06 02:33:22;;;;;;;15.73;14.20;;;;;;;31.06;80.66;101007.13;5059906;28;66364;-31
2024/03/06 02:35:54;;;;;;;16.03;14.33;;;;;;;31.07;80.79;101000.69;5057841;28;70272;-32
2024/03/06 02:38:25;;;;;;;18.52;16.30;;;;;;;31.07;80.67;101006.09;5059002;28;65974;-32
2024/03/06 02:40:55;;;;;;;16.48;14.88;;;;;;;31.09;80.75;101004.00;5057865;28;69873;-31
2024/03/06 02:43:26;;;;;;;16.85;15.07;;;;;;;31.14;80.55;101009.59;5054952;28;65795;-31
2024/03/06 02:45:56;;;;;;;17.23;15.55;;;;;;;31.16;80.30;101003.97;5059325;28;69696;-31
2024/03/06 02:48:27;;;;;;;19.75;15.68;;;;;;;31.16;80.37;101004.78;5057223;28;65265;-32
2024/03/06 02:50:58;;;;;;;17.02;15.23;;;;;;;31.19;80.12;100998.09;5060402;28;70657;-31
2024/03/06 02:53:28;;;;;;;16.55;15.02;;;;;;;31.23;80.34;100998.47;5061226;28;64973;-31
2024/03/06 02:56:00;;;;;;;19.27;16.20;;;;;;;31.25;80.37;100993.69;5061994;28;70321;-31
2024/03/06 02:58:31;;;;;;;16.70;14.97;;;;;;;31.23;79.94;100987.63;5060246;28;66488;-31
2024/03/06 03:01:02;;;;;;;19.00;16.23;;;;;;;31.24;80.04;100986.59;5058798;28;69164;-32
2024/03/06 03:03:32;;;;;;;16.98;15.38;;;;;;;31.31;80.18;100990.06;5055550;27;66174;-33
2024/03/06 03:06:04;;;;;;;17.83;16.02;;;;;;;31.33;79.89;100993.41;5054624;28;70669;-37
2024/03/06 03:08:35;;;;;;;;;;;;;;;31.27;80.57;100983.44;5058779;28;66761;-32
2024/03/06 03:11:05;;;;;;;17.27;15.55;;;;;;;31.38;79.75;100980.06;5057564;28;70014;-31
2024/03/06 03:13:39;;;;;;;16.63;14.98;;;;;;;31.40;79.86;100977.97;5059879;28;66388;-34
2024/03/06 03:16:20;;;;;;;18.40;15.95;;;;;;;31.43;79.89;100982.13;5060236;28;69529;-31
2024/03/06 03:18:51;;;;;;;17.02;15.20;;;;;;;31.43;79.47;100974.81;5046506;28;65188;-31
2024/03/06 03:21:21;;;;;;;22.75;16.38;;;;;;;31.43;79.65;100966.66;5060430;28;69749;-32
2024/03/06 03:23:52;;;;;;;17.00;15.38;;;;;;;31.41;79.63;100955.22;5059502;28;66227;-32
2024/03/06 03:26:23;;;;;;;16.95;15.43;;;;;;;31.45;79.67;100953.69;5053320;28;70630;-31
2024/03/06 03:28:55;;;;;;;17.67;16.13;;;;;;;31.50;79.31;100956.56;5060553;28;65994;-32
2024/03/06 03:31:26;;;;;;;17.98;16.23;;;;;;;31.54;79.17;100946.97;5059564;28;70789;-31
2024/03/06 03:33:57;;;;;;;18.30;16.40;;;;;;;31.56;79.29;100944.00;5060412;28;66366;-32
2024/03/06 03:36:28;;;;;;;17.27;15.57;;;;;;;31.57;78.82;100937.56;5059696;28;71693;-31
2024/03/06 03:38:58;;;;;;;20.50;17.20;;;;;;;31.61;78.84;100938.75;5059487;28;65868;-31
2024/03/06 03:41:29;;;;;;;21.20;16.40;;;;;;;31.63;78.83;100938.53;5060728;28;69666;-32
2024/03/06 03:44:00;;;;;;;18.27;16.48;;;;;;;31.65;78.74;100939.97;5060340;28;66481;-32
2024/03/06 03:46:30;;;;;;;17.95;16.15;;;;;;;31.68;78.70;100933.25;5056976;28;70708;-33
2024/03/06 03:49:01;;;;;;;19.17;17.23;;;;;;;31.71;78.51;100936.38;5060778;28;65692;-34
2024/03/06 03:51:32;;;;;;;20.52;16.58;;;;;;;31.74;78.42;100930.50;5060552;28;70251;-32
2024/03/06 03:54:03;;;;;;;17.35;15.88;;;;;;;31.75;78.56;100926.72;5057967;28;66610;-31
2024/03/06 03:56:35;;;;;;;18.70;16.83;;;;;;;31.77;78.59;100929.22;5052679;28;68835;-35
2024/03/06 03:59:05;;;;;;;;;;;;;;;31.75;78.54;100928.59;5059723;28;66545;-30
2024/03/06 04:01:36;;;;;;;18.38;16.20;;;;;;;31.85;78.14;100915.34;5057853;28;69903;-32
2024/03/06 04:04:08;;;;;;;18.88;17.05;;;;;;;31.85;78.09;100915.34;5060382;28;66082;-33
2024/03/06 04:06:38;;;;;;;20.90;18.67;;;;;;;31.87;78.02;100907.78;5059603;28;70128;-32
2024/03/06 04:09:14;;;;;;;19.55;17.58;;;;;;;31.87;77.83;100896.94;5058753;28;66980;-31
2024/03/06 04:11:45;;;;;;;19.67;17.88;;;;;;;31.93;78.01;100901.50;5059998;28;70544;-32
2024/03/06 04:14:15;;;;;;;20.98;17.73;;;;;;;31.96;77.87;100895.63;5050926;28;66139;-32
2024/03/06 04:16:47;;;;;;;19.35;17.50;;;;;;;31.99;77.99;100900.59;5052861;28;70621;-32
2024/03/06 04:19:18;;;;;;;23.00;18.53;;;;;;;32.00;77.49;100902.25;5054388;28;66444;-31
2024/03/06 04:21:49;;;;;;;19.27;17.48;;;;;;;32.03;77.85;100896.34;5057219;28;69871;-32
2024/03/06 04:24:19;;;;;;;20.08;17.98;;;;;;;32.03;77.55;100885.50;5059230;28;66453;-32
2024/03/06 04:26:50;;;;;;;18.30;16.75;;;;;;;32.10;77.66;100881.91;5059995;28;70585;-32
2024/03/06 04:29:20;;;;;;;21.17;18.13;;;;;;;32.11;77.41;100869.97;5056745;28;66310;-32
2024/03/06 04:31:51;;;;;;;18.75;16.83;;;;;;;32.13;77.50;100865.97;5058730;28;70387;-31
2024/03/06 04:34:23;;;;;;;18.77;17.15;;;;;;;32.18;77.49;100865.28;5058130;28;66141;-36
2024/03/06 04:36:54;;;;;;;19.98;18.05;;;;;;;32.19;77.55;100861.53;5056744;28;70191;-32
2024/03/06 04:39:25;;;;;;;19.60;17.67;;;;;;;32.22;77.32;100861.06;5061612;28;66299;-32
2024/03/06 04:41:56;;;;;;;21.20;18.05;;;;;;;32.24;77.22;100854.34;5059018;28;69600;-31
2024/03/06 04:44:28;;;;;;;18.98;17.58;;;;;;;32.27;77.34;100847.63;5055506;28;66026;-31
2024/03/06 04:46:58;;;;;;;18.95;17.30;;;;;;;32.30;77.13;100849.88;5058724;28;69846;-32
2024/03/06 04:49:33;;;;;;;20.45;18.42;;;;;;;32.33;76.93;100843.16;5059678;28;66100;-31
2024/03/06 04:52:04;;;;;;;20.00;18.02;;;;;;;32.33;77.06;100835.84;5054462;28;69932;-32
2024/03/06 04:54:35;;;;;;;20.95;19.08;;;;;;;32.36;77.03;100834.56;5059346;28;66599;-32
2024/03/06 04:57:05;;;;;;;21.60;19.38;;;;;;;32.39;76.89;100824.06;5051966;28;70024;-32
2024/03/06 04:59:36;;;;;;;21.17;19.15;;;;;;;32.42;77.00;100820.88;5054091;28;67032;-33
2024/03/06 05:02:08;;;;;;;21.33;19.33;;;;;;;32.45;76.69;100822.28;5058988;28;70717;-32
2024/03/06 05:04:39;;;;;;;21.38;19.17;;;;;;;32.46;76.79;100813.13;5052283;28;66416;-30
2024/03/06 05:07:26;;;;;;;20.77;18.85;;;;;;;32.49;76.41;100813.50;5050042;28;70663;-32
2024/03/06 05:10:13;;;;;;;21.52;19.27;;;;;;;32.46;76.56;100799.56;5049729;28;66057;-32
2024/03/06 05:13:00;;;;;;;21.80;19.58;;;;;;;32.55;76.74;100800.88;5058204;28;69302;-31
2024/03/06 05:15:47;;;;;;;21.02;18.90;;;;;;;32.57;76.59;100800.63;5057963;28;65911;-32
2024/03/06 05:18:35;;;;;;;20.65;18.67;;;;;;;32.58;76.28;100784.09;5055775;28;68986;-31
2024/03/06 05:21:22;;;;;;;22.48;19.75;;;;;;;32.61;76.66;100788.25;5054920;28;66152;-32
2024/03/06 05:24:09;;;;;;;22.00;19.83;;;;;;;32.64;76.18;100776.91;5054249;28;69645;-33
2024/03/06 05:26:56;;;;;;;22.60;19.30;;;;;;;32.65;76.44;100773.13;5058552;28;67118;-36
2024/03/06 05:29:44;;;;;;;21.58;19.33;;;;;;;32.69;76.24;100768.88;5056386;28;69945;-31
2024/03/06 05:32:31;;;;;;;22.63;20.25;;;;;;;32.75;76.38;100761.69;5056614;28;66056;-33
2024/03/06 05:35:18;;;;;;;21.15;19.17;;;;;;;32.75;76.11;100762.50;5056841;28;69497;-32
2024/03/06 05:38:06;;;;;;;21.15;19.25;;;;;;;32.77;76.01;100760.38;5061125;28;66321;-33
2024/03/06 05:40:54;;;;;;;21.77;19.00;;;;;;;32.77;75.86;100749.53;5053710;28;70316;-32
2024/03/06 05:43:40;;;;;;;20.83;18.77;;;;;;;32.81;76.02;100736.28;5060484;28;66553;-32
2024/03/06 05:46:28;;;;;;;21.88;19.73;;;;;;;32.89;75.77;100736.75;5055466;28;70738;-32
2024/03/06 05:49:15;;;;;;;21.95;19.65;;;;;;;32.89;76.00;100731.31;5062215;28;65889;-33
2024/03/06 05:52:02;;;;;;;21.05;19.13;;;;;;;32.87;76.13;100722.56;5055462;28;69410;-33
2024/03/06 05:54:50;;;;;;;21.55;19.40;;;;;;;32.92;75.92;100719.16;5062059;28;66040;-31
2024/03/06 05:57:37;;;;;;;20.17;18.15;;;;;;;32.94;75.79;100717.84;5061256;28;70418;-32
2024/03/06 06:00:24;;;;;;;21.08;18.98;;;;;;;32.99;75.80;100705.41;5048172;28;65489;-36
2024/03/06 06:02:56;;;;;;;22.85;20.40;;;;;;;33.03;75.79;100710.19;5061226;28;70315;-32
2024/03/06 06:05:27;;;;;;;21.63;19.60;;;;;;;33.06;75.55;100708.88;5061706;28;66018;-32
2024/03/06 06:07:57;;;;;;;21.83;19.65;;;;;;;33.09;75.51;100701.06;5053049;28;70452;-32
2024/03/06 06:10:28;;;;;;;20.95;19.02;;;;;;;33.09;75.64;100694.81;5061548;28;65843;-31
2024/03/06 06:12:59;;;;;;;21.25;19.38;;;;;;;33.11;75.55;100692.69;5061344;28;69999;-33
2024/03/06 06:15:30;;;;;;;20.13;18.15;;;;;;;33.14;75.31;100673.19;5059218;28;65542;-33
2024/03/06 06:18:01;;;;;;;21.95;19.73;;;;;;;33.16;75.66;100676.50;5060517;28;70282;-32
2024/03/06 06:20:32;;;;;;;20.17;18.33;;;;;;;33.18;75.38;100679.78;5060859;28;66628;-32
2024/03/06 06:23:03;;;;;;;21.50;19.70;;;;;;;33.23;75.38;100677.16;5059371;28;69686;-33
2024/03/06 06:25:35;;;;;;;20.90;19.07;;;;;;;33.21;75.21;100665.72;5061413;28;65663;-32
2024/03/06 06:28:05;;;;;;;22.13;19.90;;;;;;;33.25;75.51;100664.16;5060840;28;70371;-31
2024/03/06 06:30:38;;;;;;;22.30;19.97;;;;;;;33.26;75.34;100656.81;5061368;28;66300;-31
2024/03/06 06:33:09;;;;;;;20.80;19.02;;;;;;;33.28;75.17;100663.69;5061094;28;70244;-35
2024/03/06 06:35:40;;;;;;;21.20;19.10;;;;;;;33.23;75.29;100644.53;5059472;28;65132;-33
2024/03/06 06:38:11;;;;;;;26.90;19.60;;;;;;;33.31;75.16;100644.16;5059520;28;70096;-33
2024/03/06 06:40:42;;;;;;;21.17;19.35;;;;;;;33.32;75.06;100640.38;5061662;28;66388;-32
2024/03/06 06:43:13;;;;;;;21.38;19.58;;;;;;;33.38;75.07;100639.41;5057154;28;68846;-30
2024/03/06 06:45:44;;;;;;;21.58;19.58;;;;;;;33.41;74.88;100640.00;5061081;28;66444;-31
2024/03/06 06:48:14;;;;;;;20.88;19.08;;;;;;;33.44;74.79;100639.50;5056731;28;70045;-32
2024/03/06 06:50:47;;;;;;;21.87;19.70;;;;;;;33.41;74.77;100635.38;5057992;28;66025;-32
2024/03/06 06:53:18;;;;;;;21.90;19.08;;;;;;;33.44;75.01;100624.03;5057810;28;70748;-31
2024/03/06 06:55:49;;;;;;;21.02;19.15;;;;;;;33.40;74.74;100603.81;5061767;28;66562;-33
2024/03/06 06:58:20;;;;;;;21.50;19.25;;;;;;;33.52;74.69;100620.94;5059421;28;70536;-31
2024/03/06 07:00:51;;;;;;;21.48;19.38;;;;;;;33.52;74.68;100609.22;5061969;28;65865;-32
2024/03/06 07:03:23;;;;;;;19.63;17.98;;;;;;;33.55;74.98;100614.19;5058330;28;69906;-32
2024/03/06 07:05:54;;;;;;;;;;;;;;;33.44;74.56;100607.69;5060976;28;66627;-32
2024/03/06 07:08:24;;;;;;;20.52;18.77;;;;;;;33.61;74.65;100601.50;5060292;28;70034;-32
2024/03/06 07:10:57;;;;;;;21.42;19.30;;;;;;;33.60;74.61;100600.69;5060588;28;66144;-31
2024/03/06 07:13:28;;;;;;;20.75;18.95;;;;;;;33.63;74.72;100597.47;5060205;28;70113;-31
2024/03/06 07:15:58;;;;;;;20.48;18.88;;;;;;;33.67;74.30;100601.31;5057900;28;65376;-32
2024/03/06 07:18:29;;;;;;;21.23;19.23;;;;;;;33.63;74.39;100589.31;5058442;28;70304;-32
2024/03/06 07:20:59;;;;;;;22.20;20.00;;;;;;;33.69;74.34;100591.03;5059982;28;65530;-32
2024/03/06 07:23:30;;;;;;;21.63;19.67;;;;;;;33.71;74.50;100588.03;5059880;28;70646;-32
2024/03/06 07:26:01;;;;;;;21.20;19.50;;;;;;;33.76;74.24;100586.25;5059603;28;65751;-31
2024/03/06 07:28:32;;;;;;;20.98;19.25;;;;;;;33.77;74.33;100574.31;5060069;28;69971;-32
2024/03/06 07:31:03;;;;;;;20.85;19.15;;;;;;;33.80;74.27;100579.25;5060382;28;66826;-32
2024/03/06 07:33:37;;;;;;;19.90;18.42;;;;;;;33.82;73.87;100573.53;5059435;28;70406;-31
2024/03/06 07:36:09;;;;;;;20.38;18.65;;;;;;;33.83;74.07;100572.50;5061657;28;66625;-33
2024/03/06 07:38:41;;;;;;;20.90;19.00;;;;;;;33.87;74.43;100561.94;5059979;28;70530;-32
2024/03/06 07:41:12;;;;;;;21.58;19.70;;;;;;;33.88;73.80;100558.97;5058913;28;66045;-31
2024/03/06 07:43:43;;;;;;;21.08;19.23;;;;;;;33.93;74.04;100552.75;5061215;28;70165;-32
2024/03/06 07:46:14;;;;;;;21.63;19.75;;;;;;;33.91;73.94;100547.59;5060526;28;65999;-33
2024/03/06 07:48:44;;;;;;;21.73;19.77;;;;;;;33.98;74.10;100552.84;5057714;28;70049;-32
2024/03/06 07:51:15;;;;;;;21.27;19.33;;;;;;;33.99;73.75;100549.03;5059464;28;66499;-32
2024/03/06 07:53:46;;;;;;;22.15;20.08;;;;;;;34.03;74.15;100550.19;5058697;28;70184;-31
2024/03/06 07:56:17;;;;;;;21.53;19.57;;;;;;;34.01;73.61;100547.72;5056340;28;65629;-32
2024/03/06 07:58:48;;;;;;;22.05;20.33;;;;;;;34.08;74.03;100552.22;5045678;28;70014;-32
2024/03/06 08:01:18;;;;;;;21.98;19.95;;;;;;;34.07;73.89;100534.22;5058435;28;66382;-34
2024/03/06 08:03:50;;;;;;;21.30;19.50;;;;;;;34.13;73.92;100539.50;5050925;28;69226;-32
2024/03/06 08:06:20;;;;;;;21.88;19.92;;;;;;;34.19;73.90;100540.41;5058696;28;66282;-32
2024/03/06 08:08:51;;;;;;;21.67;19.87;;;;;;;34.21;73.67;100540.94;5057107;28;70551;-32
2024/03/06 08:11:24;;;;;;;22.85;20.58;;;;;;;34.23;73.88;100534.19;5059329;28;66330;-32
2024/03/06 08:14:04;;;;;;;22.05;20.05;;;;;;;34.26;73.08;100532.84;5058260;28;69542;-32
2024/03/06 08:16:37;;;;;;;22.40;20.27;;;;;;;34.32;73.56;100517.41;5052731;28;66265;-32
2024/03/06 08:19:08;;;;;;;21.20;19.10;;;;;;;34.35;73.44;100519.63;5054616;28;70340;-32
2024/03/06 08:21:38;;;;;;;22.60;20.13;;;;;;;34.30;73.54;100512.22;5048796;28;66240;-33
2024/03/06 08:24:10;;;;;;;20.33;18.70;;;;;;;34.42;73.10;100514.81;5059135;28;69578;-32
2024/03/06 08:26:41;;;;;;;21.33;19.48;;;;;;;34.47;73.16;100518.44;5049233;28;65917;-32
2024/03/06 08:29:11;;;;;;;22.77;20.45;;;;;;;34.47;73.33;100515.72;5055867;28;70115;-31
2024/03/06 08:31:42;;;;;;;22.60;20.20;;;;;;;34.55;73.27;100524.50;5060416;28;65331;-32
2024/03/06 08:34:13;;;;;;;21.67;19.73;;;;;;;34.57;73.19;100512.31;5058078;28;70436;-32
2024/03/06 08:36:44;;;;;;;21.73;19.60;;;;;;;34.61;73.01;100513.47;5055334;28;65912;-33
2024/03/06 08:39:16;;;;;;;22.40;20.23;;;;;;;34.65;73.37;100521.94;5060793;28;69261;-31
2024/03/06 08:41:47;;;;;;;21.13;19.35;;;;;;;34.69;73.23;100515.72;5059061;28;65907;-32
2024/03/06 08:44:17;;;;;;;22.58;20.27;;;;;;;34.74;72.69;100514.13;5056418;28;69746;-32
2024/03/06 08:46:48;;;;;;;22.08;19.95;;;;;;;34.79;72.72;100514.19;5050233;28;66013;-32
2024/03/06 08:49:18;;;;;;;22.10;20.13;;;;;;;34.83;73.03;100509.88;5056478;28;69821;-32
2024/03/06 08:51:49;;;;;;;21.77;20.02;;;;;;;34.85;72.51;100510.44;5056256;28;65911;-33
2024/03/06 08:54:20;;;;;;;23.00;20.90;;;;;;;34.88;72.55;100508.03;5056228;28;70393;-32
2024/03/06 08:56:53;;;;;;;;;;;;;;;34.82;71.99;100513.69;5058521;28;66297;-32
2024/03/06 08:59:24;;;;;;;21.38;19.55;;;;;;;34.97;72.64;100516.56;5050471;28;70798;-32
2024/03/06 09:01:56;;;;;;;22.13;20.10;;;;;;;34.95;72.30;100505.09;5056816;28;65913;-33
2024/03/06 09:04:28;;;;;;;20.83;18.83;;;;;;;35.05;72.12;100513.38;5056289;28;69201;-33
2024/03/06 09:06:59;;;;;;;23.83;20.25;;;;;;;35.07;72.13;100524.88;5058524;28;66971;-32
2024/03/06 09:09:30;;;;;;;21.20;19.25;;;;;;;35.13;72.25;100525.72;5056105;28;70054;-33
2024/03/06 09:12:03;;;;;;;21.88;19.83;;;;;;;35.17;71.86;100526.88;5053693;28;64954;-33
2024/03/06 09:14:35;;;;;;;22.00;19.80;;;;;;;35.20;72.00;100525.53;5057239;28;70051;-32
2024/03/06 09:17:09;;;;;;;27.42;19.83;;;;;;;35.30;72.19;100526.47;5059254;28;66555;-32
2024/03/06 09:19:40;;;;;;;24.48;21.90;;;;;;;35.25;72.96;100526.41;5058117;28;70791;-32
2024/03/06 09:22:28;;;;;;;25.52;22.77;;;;;;;35.19;72.97;100529.34;5056718;28;65961;-33
2024/03/06 09:24:58;;;;;;;25.35;22.70;;;;;;;35.23;73.28;100535.94;5057643;28;69372;-33
2024/03/06 09:27:29;;;;;;;24.50;22.00;;;;;;;35.24;73.52;100537.56;5062243;28;66364;-32
2024/03/06 09:30:00;;;;;;;23.50;21.47;;;;;;;35.23;73.56;100530.47;5060590;28;69323;-32
2024/03/06 09:32:32;;;;;;;25.45;23.05;;;;;;;35.26;73.72;100530.78;5059149;28;66824;-33
2024/03/06 09:35:03;;;;;;;24.92;22.52;;;;;;;35.28;73.95;100535.97;5060511;28;70711;-32
2024/03/06 09:37:36;;;;;;;24.58;22.08;;;;;;;35.25;74.24;100536.50;5059607;28;66284;-32
2024/03/06 09:40:10;;;;;;;25.60;22.95;;;;;;;35.26;74.75;100544.41;5061808;27;70051;-32
2024/03/06 09:42:41;;;;;;;26.23;23.65;;;;;;;35.29;74.67;100534.88;5060753;28;65177;-32
2024/03/06 09:45:11;;;;;;;26.35;22.42;;;;;;;35.26;74.96;100529.97;5055715;28;70284;-33
2024/03/06 09:47:44;;;;;;;26.70;22.52;;;;;;;35.26;75.07;100540.88;5052667;28;66039;-32
2024/03/06 09:50:22;;;;;;;30.35;23.40;;;;;;;35.06;74.88;100503.31;5062373;28;70234;-32
2024/03/06 09:52:55;;;;;;;24.83;22.52;;;;;;;35.17;75.04;100512.44;5057762;28;66534;-34
2024/03/06 09:55:30;;;;;;;28.38;23.42;;;;;;;35.38;75.04;100538.78;5059933;28;69931;-33
2024/03/06 09:58:03;;;;;;;29.67;24.52;;;;;;;35.31;74.91;100549.91;5059743;28;65873;-32
2024/03/06 10:00:34;;;;;;;31.08;25.38;;;;;;;35.41;74.74;100543.75;5061595;28;70853;-32
2024/03/06 10:03:05;;;;;;;31.52;24.90;;;;;;;35.35;75.07;100542.88;5061639;28;66379;-33
2024/03/06 10:05:36;;;;;;;33.97;26.02;;;;;;;35.42;74.79;100539.94;5061428;28;69465;-32
2024/03/06 10:08:07;;;;;;;33.57;24.37;;;;;;;35.44;74.54;100548.69;5061389;28;66046;-32
2024/03/06 10:10:38;;;;;;;30.42;24.35;;;;;;;35.44;74.77;100542.38;5060475;28;69395;-32
2024/03/06 10:13:08;;;;;;;27.57;24.57;;;;;;;35.37;75.26;100548.06;5058396;28;66191;-33
2024/03/06 10:15:39;;;;;;;31.80;23.43;;;;;;;35.41;75.42;100543.75;5061525;28;70780;-32
2024/03/06 10:18:16;;;;;;;24.83;21.92;;;;;;;35.14;75.26;100502.88;5059127;28;66946;-33
2024/03/06 10:20:47;;;;;;;24.63;21.42;;;;;;;35.36;75.79;100551.88;5052436;28;70522;-33
2024/03/06 10:23:18;;;;;;;27.80;23.08;;;;;;;35.36;75.37;100554.59;5058444;28;65842;-33
2024/03/06 10:25:53;;;;;;;27.95;21.48;;;;;;;35.37;75.55;100553.50;5061377;28;70907;-31
2024/03/06 10:28:24;;;;;;;30.33;22.20;;;;;;;35.39;75.76;100554.09;5057876;28;64570;-33
2024/03/06 10:31:05;;;;;;;24.33;21.75;;;;;;;35.39;75.81;100556.81;5059135;28;69411;-31
2024/03/06 10:33:37;;;;;;;31.55;23.33;;;;;;;35.33;76.39;100555.13;5056256;28;67027;-34
2024/03/06 10:36:11;;;;;;;29.38;22.63;;;;;;;35.29;76.77;100559.44;5058916;28;70383;-33
2024/03/06 10:38:47;;;;;;;37.35;23.85;;;;;;;35.33;76.27;100557.84;5054538;28;66437;-32
2024/03/06 10:41:24;;;;;;;37.50;24.75;;;;;;;35.27;75.91;100553.41;5060848;28;70547;-33
2024/03/06 10:43:55;;;;;;;34.95;24.75;;;;;;;35.24;76.25;100557.47;5059632;28;65165;-34
2024/03/06 10:46:28;;;;;;;41.15;25.92;;;;;;;35.18;76.56;100554.97;5060450;28;71255;-33
2024/03/06 10:49:02;;;;;;;45.25;28.00;;;;;;;35.16;77.20;100560.69;5061177;28;66515;-33
2024/03/06 10:51:35;;;;;;;50.17;28.58;;;;;;;35.19;76.85;100554.72;5054510;28;70341;-32
2024/03/06 10:54:09;;;;;;;34.65;26.92;;;;;;;34.87;77.18;100500.09;5060475;28;66708;-33
2024/03/06 10:56:43;;;;;;;46.13;28.85;;;;;;;35.01;77.60;100534.03;5059740;28;70512;-35
2024/03/06 10:59:15;;;;;;;45.42;29.13;;;;;;;35.03;77.90;100563.78;5051581;28;65741;-33
2024/03/06 11:01:47;;;;;;;42.38;30.08;;;;;;;35.14;77.44;100571.84;5058325;28;70442;-32
2024/03/06 11:04:18;;;;;;;38.28;28.80;;;;;;;35.15;76.65;100564.47;5059561;28;66401;-33
2024/03/06 11:06:49;;;;;;;39.38;29.52;;;;;;;35.10;76.29;100565.25;5059490;28;69984;-33
2024/03/06 11:09:20;;;;;;;33.20;27.43;;;;;;;35.08;76.68;100572.88;5055317;28;66531;-32
2024/03/06 11:11:52;;;;;;;36.00;28.27;;;;;;;35.07;76.26;100575.84;5057296;28;70172;-32
2024/03/06 11:14:24;;;;;;;39.95;27.85;;;;;;;35.04;76.53;100574.41;5057386;28;66540;-33
2024/03/06 11:17:14;;;;;;;36.20;27.33;;;;;;;34.94;76.89;100566.16;5057915;28;70497;-31
2024/03/06 11:20:00;;;;;;;40.42;28.58;;;;;;;34.93;77.09;100564.47;5058412;28;66570;-32
2024/03/06 11:22:58;;;;;;;31.13;27.83;;;;;;;34.88;77.11;100568.00;5057379;28;70781;-33
2024/03/06 11:25:48;;;;;;;38.90;27.77;;;;;;;34.85;76.95;100573.09;5056674;28;66286;-35
2024/03/06 11:28:29;;;;;;;30.73;27.02;;;;;;;34.89;75.99;100571.53;5057646;28;70260;-33
2024/03/06 11:31:03;;;;;;;35.40;27.05;;;;;;;34.67;76.21;100550.56;5059261;28;66644;-36
2024/03/06 11:33:45;;;;;;;37.40;26.65;;;;;;;34.49;76.31;100531.78;5057958;28;70084;-32
2024/03/06 11:36:20;;;;;;;32.95;26.75;;;;;;;34.82;76.26;100585.34;5057503;28;65608;-31
2024/03/06 11:38:57;;;;;;;33.55;26.50;;;;;;;34.81;76.30;100588.34;5057515;28;70235;-33